sensor_id;sensor_type;location;lat;lon;timestamp;temperature;humidity
61016;DHT22;46902;52.920;6.536;2023-06-10T00:01:54;19.40;70.90
61016;DHT22;46902;52.920;6.536;2023-06-10T00:04:23;19.30;71.00
61016;DHT22;46902;52.920;6.536;2023-06-10T00:06:48;19.20;71.20
61016;DHT22;46902;52.920;6.536;2023-06-10T00:09:15;19.20;71.30
61016;DHT22;46902;52.920;6.536;2023-06-10T00:11:41;19.20;71.50
61016;DHT22;46902;52.920;6.536;2023-06-10T00:14:07;19.10;71.70
61016;DHT22;46902;52.920;6.536;2023-06-10T00:16:33;19.10;71.80
61016;DHT22;46902;52.920;6.536;2023-06-10T00:19:00;19.10;71.90
61016;DHT22;46902;52.920;6.536;2023-06-10T00:21:31;19.00;72.70
61016;DHT22;46902;52.920;6.536;2023-06-10T00:24:06;19.00;72.10
61016;DHT22;46902;52.920;6.536;2023-06-10T00:26:32;18.90;72.20
61016;DHT22;46902;52.920;6.536;2023-06-10T00:28:59;18.90;72.40
61016;DHT22;46902;52.920;6.536;2023-06-10T00:31:24;18.90;72.40
61016;DHT22;46902;52.920;6.536;2023-06-10T00:33:52;18.80;72.50
61016;DHT22;46902;52.920;6.536;2023-06-10T00:36:17;18.80;72.50
61016;DHT22;46902;52.920;6.536;2023-06-10T00:38:43;18.80;72.60
61016;DHT22;46902;52.920;6.536;2023-06-10T00:41:09;18.70;72.60
61016;DHT22;46902;52.920;6.536;2023-06-10T00:43:35;18.70;73.40
61016;DHT22;46902;52.920;6.536;2023-06-10T00:46:01;18.70;72.90
61016;DHT22;46902;52.920;6.536;2023-06-10T00:48:27;18.70;72.80
61016;DHT22;46902;52.920;6.536;2023-06-10T00:50:53;18.70;73.30
61016;DHT22;46902;52.920;6.536;2023-06-10T00:53:19;18.60;72.90
61016;DHT22;46902;52.920;6.536;2023-06-10T00:55:46;18.60;73.00
61016;DHT22;46902;52.920;6.536;2023-06-10T00:58:12;18.60;73.10
61016;DHT22;46902;52.920;6.536;2023-06-10T01:00:38;18.50;73.20
61016;DHT22;46902;52.920;6.536;2023-06-10T01:03:04;18.50;73.00
61016;DHT22;46902;52.920;6.536;2023-06-10T01:05:36;18.40;73.20
61016;DHT22;46902;52.920;6.536;2023-06-10T01:08:41;18.40;73.30
61016;DHT22;46902;52.920;6.536;2023-06-10T01:11:19;18.40;73.40
61016;DHT22;46902;52.920;6.536;2023-06-10T01:13:48;18.30;73.60
61016;DHT22;46902;52.920;6.536;2023-06-10T01:16:17;18.20;73.60
61016;DHT22;46902;52.920;6.536;2023-06-10T01:18:43;18.20;73.60
61016;DHT22;46902;52.920;6.536;2023-06-10T01:21:13;18.20;73.70
61016;DHT22;46902;52.920;6.536;2023-06-10T01:23:39;18.20;73.70
61016;DHT22;46902;52.920;6.536;2023-06-10T01:26:09;18.10;73.80
61016;DHT22;46902;52.920;6.536;2023-06-10T01:28:54;18.10;73.80
61016;DHT22;46902;52.920;6.536;2023-06-10T01:34:00;18.10;73.90
61016;DHT22;46902;52.920;6.536;2023-06-10T01:36:28;18.00;73.70
61016;DHT22;46902;52.920;6.536;2023-06-10T01:38:55;18.00;73.70
61016;DHT22;46902;52.920;6.536;2023-06-10T01:41:22;18.00;73.90
61016;DHT22;46902;52.920;6.536;2023-06-10T01:43:48;18.00;74.00
61016;DHT22;46902;52.920;6.536;2023-06-10T01:46:15;17.90;73.90
61016;DHT22;46902;52.920;6.536;2023-06-10T01:48:42;17.90;74.00
61016;DHT22;46902;52.920;6.536;2023-06-10T01:51:07;17.90;74.00
61016;DHT22;46902;52.920;6.536;2023-06-10T01:53:33;17.80;74.00
61016;DHT22;46902;52.920;6.536;2023-06-10T01:55:59;17.80;74.20
61016;DHT22;46902;52.920;6.536;2023-06-10T01:58:25;17.70;74.20
61016;DHT22;46902;52.920;6.536;2023-06-10T02:00:51;17.70;74.30
61016;DHT22;46902;52.920;6.536;2023-06-10T02:03:16;17.70;74.30
61016;DHT22;46902;52.920;6.536;2023-06-10T02:05:42;17.70;74.40
61016;DHT22;46902;52.920;6.536;2023-06-10T02:08:08;17.60;74.40
61016;DHT22;46902;52.920;6.536;2023-06-10T02:10:34;17.60;74.40
61016;DHT22;46902;52.920;6.536;2023-06-10T02:12:59;17.60;74.40
61016;DHT22;46902;52.920;6.536;2023-06-10T02:15:25;17.50;74.50
61016;DHT22;46902;52.920;6.536;2023-06-10T02:17:52;17.50;74.70
61016;DHT22;46902;52.920;6.536;2023-06-10T02:20:17;17.50;74.70
61016;DHT22;46902;52.920;6.536;2023-06-10T02:22:43;17.50;74.70
61016;DHT22;46902;52.920;6.536;2023-06-10T02:25:09;17.40;74.80
61016;DHT22;46902;52.920;6.536;2023-06-10T02:27:35;17.40;74.90
61016;DHT22;46902;52.920;6.536;2023-06-10T02:30:00;17.30;74.90
61016;DHT22;46902;52.920;6.536;2023-06-10T02:32:26;17.30;75.10
61016;DHT22;46902;52.920;6.536;2023-06-10T02:34:52;17.20;75.20
61016;DHT22;46902;52.920;6.536;2023-06-10T02:37:17;17.20;75.40
61016;DHT22;46902;52.920;6.536;2023-06-10T02:39:43;17.10;75.50
61016;DHT22;46902;52.920;6.536;2023-06-10T02:42:09;17.10;75.70
61016;DHT22;46902;52.920;6.536;2023-06-10T02:44:35;17.10;75.90
61016;DHT22;46902;52.920;6.536;2023-06-10T02:47:01;17.00;76.00
61016;DHT22;46902;52.920;6.536;2023-06-10T02:49:27;17.00;76.20
61016;DHT22;46902;52.920;6.536;2023-06-10T02:51:55;17.00;76.30
61016;DHT22;46902;52.920;6.536;2023-06-10T02:54:25;16.90;76.60
61016;DHT22;46902;52.920;6.536;2023-06-10T02:56:52;16.90;76.80
61016;DHT22;46902;52.920;6.536;2023-06-10T02:59:18;16.90;76.90
61016;DHT22;46902;52.920;6.536;2023-06-10T03:01:44;16.80;77.10
61016;DHT22;46902;52.920;6.536;2023-06-10T03:04:10;16.80;77.10
61016;DHT22;46902;52.920;6.536;2023-06-10T03:06:39;16.70;77.30
61016;DHT22;46902;52.920;6.536;2023-06-10T03:09:06;16.80;77.70
61016;DHT22;46902;52.920;6.536;2023-06-10T03:11:35;16.70;77.80
61016;DHT22;46902;52.920;6.536;2023-06-10T03:14:01;16.70;78.10
61016;DHT22;46902;52.920;6.536;2023-06-10T03:16:26;16.70;78.20
61016;DHT22;46902;52.920;6.536;2023-06-10T03:18:52;16.60;78.30
61016;DHT22;46902;52.920;6.536;2023-06-10T03:21:18;16.60;78.40
61016;DHT22;46902;52.920;6.536;2023-06-10T03:23:44;16.50;78.70
61016;DHT22;46902;52.920;6.536;2023-06-10T03:26:11;16.50;78.90
61016;DHT22;46902;52.920;6.536;2023-06-10T03:28:37;16.50;79.10
61016;DHT22;46902;52.920;6.536;2023-06-10T03:31:03;16.40;79.40
61016;DHT22;46902;52.920;6.536;2023-06-10T03:33:29;16.40;79.70
61016;DHT22;46902;52.920;6.536;2023-06-10T03:35:55;16.40;79.90
61016;DHT22;46902;52.920;6.536;2023-06-10T03:38:21;16.30;80.10
61016;DHT22;46902;52.920;6.536;2023-06-10T03:40:47;16.30;80.40
61016;DHT22;46902;52.920;6.536;2023-06-10T03:43:13;16.30;80.70
61016;DHT22;46902;52.920;6.536;2023-06-10T03:45:38;16.20;80.90
61016;DHT22;46902;52.920;6.536;2023-06-10T03:48:04;16.20;81.00
61016;DHT22;46902;52.920;6.536;2023-06-10T03:50:31;16.20;81.50
61016;DHT22;46902;52.920;6.536;2023-06-10T03:52:58;16.20;81.80
61016;DHT22;46902;52.920;6.536;2023-06-10T03:55:23;16.20;82.00
61016;DHT22;46902;52.920;6.536;2023-06-10T03:57:49;16.20;82.40
61016;DHT22;46902;52.920;6.536;2023-06-10T04:00:16;16.10;82.70
61016;DHT22;46902;52.920;6.536;2023-06-10T04:02:45;16.10;82.90
61016;DHT22;46902;52.920;6.536;2023-06-10T04:05:12;16.10;83.50
61016;DHT22;46902;52.920;6.536;2023-06-10T04:07:39;16.10;83.80
61016;DHT22;46902;52.920;6.536;2023-06-10T04:10:07;16.10;84.10
61016;DHT22;46902;52.920;6.536;2023-06-10T04:12:33;16.10;84.40
61016;DHT22;46902;52.920;6.536;2023-06-10T04:14:58;16.10;84.70
61016;DHT22;46902;52.920;6.536;2023-06-10T04:17:25;16.10;84.90
61016;DHT22;46902;52.920;6.536;2023-06-10T04:19:51;16.10;85.20
61016;DHT22;46902;52.920;6.536;2023-06-10T04:22:17;16.10;85.40
61016;DHT22;46902;52.920;6.536;2023-06-10T04:24:43;16.00;85.90
61016;DHT22;46902;52.920;6.536;2023-06-10T04:27:09;16.10;86.30
61016;DHT22;46902;52.920;6.536;2023-06-10T04:29:34;16.10;86.70
61016;DHT22;46902;52.920;6.536;2023-06-10T04:32:00;16.10;87.00
61016;DHT22;46902;52.920;6.536;2023-06-10T04:34:27;16.10;87.70
61016;DHT22;46902;52.920;6.536;2023-06-10T04:36:53;16.10;88.10
61016;DHT22;46902;52.920;6.536;2023-06-10T04:39:18;16.10;88.70
61016;DHT22;46902;52.920;6.536;2023-06-10T04:41:45;16.10;89.00
61016;DHT22;46902;52.920;6.536;2023-06-10T04:44:11;16.10;89.40
61016;DHT22;46902;52.920;6.536;2023-06-10T04:46:37;16.10;90.00
61016;DHT22;46902;52.920;6.536;2023-06-10T04:49:03;16.10;90.60
61016;DHT22;46902;52.920;6.536;2023-06-10T04:51:30;16.20;90.40
61016;DHT22;46902;52.920;6.536;2023-06-10T04:53:57;16.20;90.60
61016;DHT22;46902;52.920;6.536;2023-06-10T04:56:23;16.20;90.80
61016;DHT22;46902;52.920;6.536;2023-06-10T04:58:49;16.30;91.10
61016;DHT22;46902;52.920;6.536;2023-06-10T05:01:15;16.30;91.20
61016;DHT22;46902;52.920;6.536;2023-06-10T05:03:41;16.30;91.40
61016;DHT22;46902;52.920;6.536;2023-06-10T05:06:06;16.30;91.60
61016;DHT22;46902;52.920;6.536;2023-06-10T05:08:33;16.30;91.80
61016;DHT22;46902;52.920;6.536;2023-06-10T05:10:58;16.30;92.20
61016;DHT22;46902;52.920;6.536;2023-06-10T05:13:24;16.30;92.30
61016;DHT22;46902;52.920;6.536;2023-06-10T05:15:49;16.30;92.60
61016;DHT22;46902;52.920;6.536;2023-06-10T05:18:15;16.30;92.90
61016;DHT22;46902;52.920;6.536;2023-06-10T05:20:41;16.30;93.10
61016;DHT22;46902;52.920;6.536;2023-06-10T05:23:07;16.30;93.40
61016;DHT22;46902;52.920;6.536;2023-06-10T05:25:32;16.40;93.60
61016;DHT22;46902;52.920;6.536;2023-06-10T05:27:58;16.40;93.90
61016;DHT22;46902;52.920;6.536;2023-06-10T05:30:24;16.50;94.00
61016;DHT22;46902;52.920;6.536;2023-06-10T05:32:51;16.50;94.40
61016;DHT22;46902;52.920;6.536;2023-06-10T05:35:17;16.50;94.30
61016;DHT22;46902;52.920;6.536;2023-06-10T05:37:43;16.60;94.40
61016;DHT22;46902;52.920;6.536;2023-06-10T05:40:10;16.70;94.50
61016;DHT22;46902;52.920;6.536;2023-06-10T05:42:35;16.70;94.80
61016;DHT22;46902;52.920;6.536;2023-06-10T05:45:02;16.80;95.00
61016;DHT22;46902;52.920;6.536;2023-06-10T05:47:27;16.90;94.90
61016;DHT22;46902;52.920;6.536;2023-06-10T05:49:53;16.90;95.00
61016;DHT22;46902;52.920;6.536;2023-06-10T05:52:19;17.00;95.10
61016;DHT22;46902;52.920;6.536;2023-06-10T05:54:44;17.10;95.60
61016;DHT22;46902;52.920;6.536;2023-06-10T05:57:10;17.10;95.40
61016;DHT22;46902;52.920;6.536;2023-06-10T05:59:36;17.30;95.30
61016;DHT22;46902;52.920;6.536;2023-06-10T06:02:01;17.30;95.10
61016;DHT22;46902;52.920;6.536;2023-06-10T06:04:27;17.40;95.00
61016;DHT22;46902;52.920;6.536;2023-06-10T06:06:53;17.40;95.00
61016;DHT22;46902;52.920;6.536;2023-06-10T06:09:18;17.50;95.00
61016;DHT22;46902;52.920;6.536;2023-06-10T06:11:44;17.60;95.00
61016;DHT22;46902;52.920;6.536;2023-06-10T06:14:09;17.70;94.90
61016;DHT22;46902;52.920;6.536;2023-06-10T06:16:35;17.70;94.80
61016;DHT22;46902;52.920;6.536;2023-06-10T06:19:01;17.90;94.80
61016;DHT22;46902;52.920;6.536;2023-06-10T06:21:26;17.90;94.70
61016;DHT22;46902;52.920;6.536;2023-06-10T06:23:52;18.00;94.30
61016;DHT22;46902;52.920;6.536;2023-06-10T06:26:18;18.00;94.20
61016;DHT22;46902;52.920;6.536;2023-06-10T06:28:43;18.00;94.20
61016;DHT22;46902;52.920;6.536;2023-06-10T06:31:09;18.10;93.80
61016;DHT22;46902;52.920;6.536;2023-06-10T06:33:35;18.10;93.70
61016;DHT22;46902;52.920;6.536;2023-06-10T06:36:00;18.20;93.60
61016;DHT22;46902;52.920;6.536;2023-06-10T06:38:26;18.20;93.70
61016;DHT22;46902;52.920;6.536;2023-06-10T06:40:52;18.30;93.80
61016;DHT22;46902;52.920;6.536;2023-06-10T06:43:17;18.40;93.70
61016;DHT22;46902;52.920;6.536;2023-06-10T06:45:44;18.40;93.60
61016;DHT22;46902;52.920;6.536;2023-06-10T06:48:11;18.50;93.40
61016;DHT22;46902;52.920;6.536;2023-06-10T06:50:36;18.60;93.20
61016;DHT22;46902;52.920;6.536;2023-06-10T06:53:03;18.70;93.20
61016;DHT22;46902;52.920;6.536;2023-06-10T06:55:28;18.80;93.10
61016;DHT22;46902;52.920;6.536;2023-06-10T06:57:54;18.80;93.10
61016;DHT22;46902;52.920;6.536;2023-06-10T07:00:21;18.90;92.80
61016;DHT22;46902;52.920;6.536;2023-06-10T07:02:46;19.00;92.60
61016;DHT22;46902;52.920;6.536;2023-06-10T07:05:12;19.10;92.50
61016;DHT22;46902;52.920;6.536;2023-06-10T07:07:38;19.20;92.40
61016;DHT22;46902;52.920;6.536;2023-06-10T07:10:04;19.30;92.30
61016;DHT22;46902;52.920;6.536;2023-06-10T07:12:29;19.40;92.10
61016;DHT22;46902;52.920;6.536;2023-06-10T07:14:55;19.40;92.10
61016;DHT22;46902;52.920;6.536;2023-06-10T07:17:21;19.50;91.60
61016;DHT22;46902;52.920;6.536;2023-06-10T07:19:46;19.50;91.50
61016;DHT22;46902;52.920;6.536;2023-06-10T07:22:12;19.60;91.20
61016;DHT22;46902;52.920;6.536;2023-06-10T07:24:38;19.70;91.30
61016;DHT22;46902;52.920;6.536;2023-06-10T07:27:03;19.80;91.20
61016;DHT22;46902;52.920;6.536;2023-06-10T07:29:29;19.90;91.00
61016;DHT22;46902;52.920;6.536;2023-06-10T07:31:55;20.00;91.00
61016;DHT22;46902;52.920;6.536;2023-06-10T07:34:20;20.10;90.80
61016;DHT22;46902;52.920;6.536;2023-06-10T07:36:46;20.20;90.80
61016;DHT22;46902;52.920;6.536;2023-06-10T07:39:11;20.40;90.30
61016;DHT22;46902;52.920;6.536;2023-06-10T07:41:37;20.40;90.00
61016;DHT22;46902;52.920;6.536;2023-06-10T07:44:03;20.60;90.00
61016;DHT22;46902;52.920;6.536;2023-06-10T07:46:28;20.60;89.20
61016;DHT22;46902;52.920;6.536;2023-06-10T07:48:54;20.70;89.50
61016;DHT22;46902;52.920;6.536;2023-06-10T07:51:21;20.70;89.00
61016;DHT22;46902;52.920;6.536;2023-06-10T07:53:47;20.90;88.70
61016;DHT22;46902;52.920;6.536;2023-06-10T07:56:12;21.00;87.20
61016;DHT22;46902;52.920;6.536;2023-06-10T07:58:38;21.10;86.30
61016;DHT22;46902;52.920;6.536;2023-06-10T08:01:04;21.20;84.90
61016;DHT22;46902;52.920;6.536;2023-06-10T08:03:29;21.30;84.60
61016;DHT22;46902;52.920;6.536;2023-06-10T08:05:55;21.50;84.40
61016;DHT22;46902;52.920;6.536;2023-06-10T08:08:21;21.60;83.60
61016;DHT22;46902;52.920;6.536;2023-06-10T08:10:46;21.70;82.20
61016;DHT22;46902;52.920;6.536;2023-06-10T08:13:12;21.80;80.70
61016;DHT22;46902;52.920;6.536;2023-06-10T08:15:37;21.80;80.00
61016;DHT22;46902;52.920;6.536;2023-06-10T08:18:03;22.00;80.10
61016;DHT22;46902;52.920;6.536;2023-06-10T08:20:29;22.10;79.90
61016;DHT22;46902;52.920;6.536;2023-06-10T08:22:54;22.10;78.80
61016;DHT22;46902;52.920;6.536;2023-06-10T08:25:20;22.30;78.10
61016;DHT22;46902;52.920;6.536;2023-06-10T08:27:47;22.40;77.20
61016;DHT22;46902;52.920;6.536;2023-06-10T08:30:13;22.60;76.60
61016;DHT22;46902;52.920;6.536;2023-06-10T08:32:39;22.70;76.30
61016;DHT22;46902;52.920;6.536;2023-06-10T08:35:05;22.90;76.50
61016;DHT22;46902;52.920;6.536;2023-06-10T08:37:31;23.00;75.80
61016;DHT22;46902;52.920;6.536;2023-06-10T08:39:56;23.10;75.10
61016;DHT22;46902;52.920;6.536;2023-06-10T08:45:09;23.40;73.30
61016;DHT22;46902;52.920;6.536;2023-06-10T08:47:39;23.50;72.30
61016;DHT22;46902;52.920;6.536;2023-06-10T08:50:08;23.60;70.80
61016;DHT22;46902;52.920;6.536;2023-06-10T08:52:37;23.80;71.00
61016;DHT22;46902;52.920;6.536;2023-06-10T08:55:18;23.90;71.00
61016;DHT22;46902;52.920;6.536;2023-06-10T08:57:45;24.00;70.30
61016;DHT22;46902;52.920;6.536;2023-06-10T09:00:13;24.20;68.90
61016;DHT22;46902;52.920;6.536;2023-06-10T09:02:40;24.40;68.50
61016;DHT22;46902;52.920;6.536;2023-06-10T09:05:07;24.40;67.50
61016;DHT22;46902;52.920;6.536;2023-06-10T09:07:35;24.50;66.60
61016;DHT22;46902;52.920;6.536;2023-06-10T09:10:02;24.70;66.60
61016;DHT22;46902;52.920;6.536;2023-06-10T09:12:29;24.80;65.80
61016;DHT22;46902;52.920;6.536;2023-06-10T09:14:55;24.90;64.90
61016;DHT22;46902;52.920;6.536;2023-06-10T09:17:21;25.00;63.70
61016;DHT22;46902;52.920;6.536;2023-06-10T09:19:47;25.10;64.40
61016;DHT22;46902;52.920;6.536;2023-06-10T09:22:14;25.20;63.00
61016;DHT22;46902;52.920;6.536;2023-06-10T09:24:40;25.30;61.80
61016;DHT22;46902;52.920;6.536;2023-06-10T09:27:08;25.40;62.00
61016;DHT22;46902;52.920;6.536;2023-06-10T09:29:54;25.40;61.70
61016;DHT22;46902;52.920;6.536;2023-06-10T09:32:20;25.60;61.90
61016;DHT22;46902;52.920;6.536;2023-06-10T09:34:47;25.60;60.70
61016;DHT22;46902;52.920;6.536;2023-06-10T09:37:13;25.70;59.90
61016;DHT22;46902;52.920;6.536;2023-06-10T09:39:44;25.80;59.50
61016;DHT22;46902;52.920;6.536;2023-06-10T09:42:17;26.00;57.90
61016;DHT22;46902;52.920;6.536;2023-06-10T09:44:50;26.10;57.00
61016;DHT22;46902;52.920;6.536;2023-06-10T09:47:22;26.20;57.20
61016;DHT22;46902;52.920;6.536;2023-06-10T09:49:51;26.30;56.50
61016;DHT22;46902;52.920;6.536;2023-06-10T09:52:27;26.40;56.10
61016;DHT22;46902;52.920;6.536;2023-06-10T09:54:55;26.50;56.10
61016;DHT22;46902;52.920;6.536;2023-06-10T09:57:23;26.50;55.20
61016;DHT22;46902;52.920;6.536;2023-06-10T09:59:53;26.70;55.80
61016;DHT22;46902;52.920;6.536;2023-06-10T10:02:19;26.80;52.10
61016;DHT22;46902;52.920;6.536;2023-06-10T10:04:45;26.90;52.60
61016;DHT22;46902;52.920;6.536;2023-06-10T10:07:11;27.00;51.30
61016;DHT22;46902;52.920;6.536;2023-06-10T10:09:38;27.10;51.30
61016;DHT22;46902;52.920;6.536;2023-06-10T10:12:10;27.20;51.00
61016;DHT22;46902;52.920;6.536;2023-06-10T10:14:45;27.20;51.80
61016;DHT22;46902;52.920;6.536;2023-06-10T10:17:11;27.30;51.50
61016;DHT22;46902;52.920;6.536;2023-06-10T10:19:50;27.40;51.90
61016;DHT22;46902;52.920;6.536;2023-06-10T10:22:23;27.60;53.20
61016;DHT22;46902;52.920;6.536;2023-06-10T10:24:53;27.80;52.10
61016;DHT22;46902;52.920;6.536;2023-06-10T10:27:44;27.90;50.50
61016;DHT22;46902;52.920;6.536;2023-06-10T10:30:11;28.00;50.50
61016;DHT22;46902;52.920;6.536;2023-06-10T10:32:46;28.10;49.50
61016;DHT22;46902;52.920;6.536;2023-06-10T10:35:17;28.20;48.70
61016;DHT22;46902;52.920;6.536;2023-06-10T10:37:44;28.30;49.20
61016;DHT22;46902;52.920;6.536;2023-06-10T10:40:11;28.40;48.40
61016;DHT22;46902;52.920;6.536;2023-06-10T10:42:38;28.40;48.10
61016;DHT22;46902;52.920;6.536;2023-06-10T10:45:05;28.60;48.10
61016;DHT22;46902;52.920;6.536;2023-06-10T10:47:33;28.70;48.80
61016;DHT22;46902;52.920;6.536;2023-06-10T10:50:00;28.80;48.90
61016;DHT22;46902;52.920;6.536;2023-06-10T10:52:28;28.90;49.50
61016;DHT22;46902;52.920;6.536;2023-06-10T10:55:12;28.90;50.00
61016;DHT22;46902;52.920;6.536;2023-06-10T10:57:38;29.10;47.80
61016;DHT22;46902;52.920;6.536;2023-06-10T11:00:05;29.30;48.30
61016;DHT22;46902;52.920;6.536;2023-06-10T11:02:40;29.40;48.10
61016;DHT22;46902;52.920;6.536;2023-06-10T11:05:07;29.60;48.20
61016;DHT22;46902;52.920;6.536;2023-06-10T11:07:34;29.70;48.00
61016;DHT22;46902;52.920;6.536;2023-06-10T11:10:10;29.90;48.30
61016;DHT22;46902;52.920;6.536;2023-06-10T11:15:32;30.00;48.10
61016;DHT22;46902;52.920;6.536;2023-06-10T11:18:25;30.10;45.10
61016;DHT22;46902;52.920;6.536;2023-06-10T11:20:59;30.30;46.20
61016;DHT22;46902;52.920;6.536;2023-06-10T11:31:27;30.60;43.40
61016;DHT22;46902;52.920;6.536;2023-06-10T11:33:54;30.70;44.30
61016;DHT22;46902;52.920;6.536;2023-06-10T11:36:20;30.80;43.60
61016;DHT22;46902;52.920;6.536;2023-06-10T11:38:46;30.80;42.50
61016;DHT22;46902;52.920;6.536;2023-06-10T11:41:13;30.90;42.60
61016;DHT22;46902;52.920;6.536;2023-06-10T11:43:45;31.00;42.00
61016;DHT22;46902;52.920;6.536;2023-06-10T11:46:12;31.10;42.90
61016;DHT22;46902;52.920;6.536;2023-06-10T11:48:37;31.10;42.20
61016;DHT22;46902;52.920;6.536;2023-06-10T11:51:07;31.20;42.80
61016;DHT22;46902;52.920;6.536;2023-06-10T11:53:33;31.20;44.30
61016;DHT22;46902;52.920;6.536;2023-06-10T11:55:59;31.30;43.70
61016;DHT22;46902;52.920;6.536;2023-06-10T11:58:25;31.40;44.20
61016;DHT22;46902;52.920;6.536;2023-06-10T12:00:55;31.40;43.10
61016;DHT22;46902;52.920;6.536;2023-06-10T12:03:24;31.40;41.30
61016;DHT22;46902;52.920;6.536;2023-06-10T12:06:02;31.40;40.10
61016;DHT22;46902;52.920;6.536;2023-06-10T12:08:29;31.40;39.90
61016;DHT22;46902;52.920;6.536;2023-06-10T12:10:56;31.50;40.90
61016;DHT22;46902;52.920;6.536;2023-06-10T12:13:22;31.60;42.10
61016;DHT22;46902;52.920;6.536;2023-06-10T12:15:49;31.70;42.10
61016;DHT22;46902;52.920;6.536;2023-06-10T12:18:19;31.70;42.10
61016;DHT22;46902;52.920;6.536;2023-06-10T12:20:45;31.90;41.70
61016;DHT22;46902;52.920;6.536;2023-06-10T12:23:12;31.90;40.90
61016;DHT22;46902;52.920;6.536;2023-06-10T12:25:38;32.00;41.60
61016;DHT22;46902;52.920;6.536;2023-06-10T12:28:05;32.00;40.60
61016;DHT22;46902;52.920;6.536;2023-06-10T12:30:32;32.10;42.10
61016;DHT22;46902;52.920;6.536;2023-06-10T12:32:57;32.30;41.00
61016;DHT22;46902;52.920;6.536;2023-06-10T12:35:25;32.30;40.10
61016;DHT22;46902;52.920;6.536;2023-06-10T12:38:04;32.30;40.20
61016;DHT22;46902;52.920;6.536;2023-06-10T12:40:34;32.30;40.10
61016;DHT22;46902;52.920;6.536;2023-06-10T12:43:02;32.30;40.80
61016;DHT22;46902;52.920;6.536;2023-06-10T12:48:07;32.30;38.90
61016;DHT22;46902;52.920;6.536;2023-06-10T12:50:35;32.30;37.80
61016;DHT22;46902;52.920;6.536;2023-06-10T12:53:02;32.30;38.30
61016;DHT22;46902;52.920;6.536;2023-06-10T12:55:28;32.30;38.20
61016;DHT22;46902;52.920;6.536;2023-06-10T12:57:54;32.30;37.60
61016;DHT22;46902;52.920;6.536;2023-06-10T13:00:20;32.30;37.50
61016;DHT22;46902;52.920;6.536;2023-06-10T13:02:48;32.30;37.80
61016;DHT22;46902;52.920;6.536;2023-06-10T13:05:13;32.30;37.80
61016;DHT22;46902;52.920;6.536;2023-06-10T13:07:39;32.30;37.60
61016;DHT22;46902;52.920;6.536;2023-06-10T13:10:05;32.30;37.30
61016;DHT22;46902;52.920;6.536;2023-06-10T13:12:31;32.30;37.90
61016;DHT22;46902;52.920;6.536;2023-06-10T13:14:57;32.30;37.40
61016;DHT22;46902;52.920;6.536;2023-06-10T13:17:22;32.30;38.10
61016;DHT22;46902;52.920;6.536;2023-06-10T13:19:50;32.30;37.60
61016;DHT22;46902;52.920;6.536;2023-06-10T13:22:15;32.40;37.80
61016;DHT22;46902;52.920;6.536;2023-06-10T13:24:41;32.40;37.40
61016;DHT22;46902;52.920;6.536;2023-06-10T13:27:09;32.50;37.80
61016;DHT22;46902;52.920;6.536;2023-06-10T13:29:34;32.50;38.50
61016;DHT22;46902;52.920;6.536;2023-06-10T13:32:00;32.50;38.00
61016;DHT22;46902;52.920;6.536;2023-06-10T13:34:25;32.50;36.50
61016;DHT22;46902;52.920;6.536;2023-06-10T13:36:51;32.50;36.70
61016;DHT22;46902;52.920;6.536;2023-06-10T13:39:16;32.50;36.50
61016;DHT22;46902;52.920;6.536;2023-06-10T13:41:42;32.50;35.90
61016;DHT22;46902;52.920;6.536;2023-06-10T13:44:08;32.50;37.00
61016;DHT22;46902;52.920;6.536;2023-06-10T13:46:34;32.50;36.10
61016;DHT22;46902;52.920;6.536;2023-06-10T13:48:59;32.50;35.70
61016;DHT22;46902;52.920;6.536;2023-06-10T13:51:25;32.70;36.10
61016;DHT22;46902;52.920;6.536;2023-06-10T13:53:51;32.70;33.60
61016;DHT22;46902;52.920;6.536;2023-06-10T13:56:18;32.70;33.20
61016;DHT22;46902;52.920;6.536;2023-06-10T13:58:43;32.70;33.90
61016;DHT22;46902;52.920;6.536;2023-06-10T14:01:09;32.90;34.30
61016;DHT22;46902;52.920;6.536;2023-06-10T14:03:35;32.90;35.30
61016;DHT22;46902;52.920;6.536;2023-06-10T14:06:00;32.80;35.00
61016;DHT22;46902;52.920;6.536;2023-06-10T14:08:27;32.80;35.50
61016;DHT22;46902;52.920;6.536;2023-06-10T14:10:52;32.70;35.40
61016;DHT22;46902;52.920;6.536;2023-06-10T14:13:18;32.80;35.80
61016;DHT22;46902;52.920;6.536;2023-06-10T14:15:44;32.90;35.80
61016;DHT22;46902;52.920;6.536;2023-06-10T14:18:11;32.90;35.70
61016;DHT22;46902;52.920;6.536;2023-06-10T14:20:36;32.80;35.10
61016;DHT22;46902;52.920;6.536;2023-06-10T14:23:02;32.70;34.70
61016;DHT22;46902;52.920;6.536;2023-06-10T14:25:28;32.70;35.80
61016;DHT22;46902;52.920;6.536;2023-06-10T14:27:53;32.70;35.60
61016;DHT22;46902;52.920;6.536;2023-06-10T14:30:19;32.70;36.20
61016;DHT22;46902;52.920;6.536;2023-06-10T14:32:45;32.60;36.00
61016;DHT22;46902;52.920;6.536;2023-06-10T14:35:10;32.70;35.90
61016;DHT22;46902;52.920;6.536;2023-06-10T14:37:36;32.60;35.70
61016;DHT22;46902;52.920;6.536;2023-06-10T14:40:04;32.60;36.10
61016;DHT22;46902;52.920;6.536;2023-06-10T14:42:30;32.60;35.20
61016;DHT22;46902;52.920;6.536;2023-06-10T14:44:57;32.50;35.00
61016;DHT22;46902;52.920;6.536;2023-06-10T14:47:23;32.60;35.80
61016;DHT22;46902;52.920;6.536;2023-06-10T14:49:49;32.50;36.00
61016;DHT22;46902;52.920;6.536;2023-06-10T14:52:14;32.50;35.90
61016;DHT22;46902;52.920;6.536;2023-06-10T14:54:40;32.50;35.60
61016;DHT22;46902;52.920;6.536;2023-06-10T14:57:06;32.50;35.30
61016;DHT22;46902;52.920;6.536;2023-06-10T14:59:33;32.40;35.50
61016;DHT22;46902;52.920;6.536;2023-06-10T15:01:58;32.40;35.60
61016;DHT22;46902;52.920;6.536;2023-06-10T15:04:26;32.50;36.50
61016;DHT22;46902;52.920;6.536;2023-06-10T15:06:52;32.40;36.00
61016;DHT22;46902;52.920;6.536;2023-06-10T15:09:17;32.40;34.90
61016;DHT22;46902;52.920;6.536;2023-06-10T15:11:43;32.50;35.10
61016;DHT22;46902;52.920;6.536;2023-06-10T15:14:08;32.40;35.40
61016;DHT22;46902;52.920;6.536;2023-06-10T15:16:34;32.50;35.30
61016;DHT22;46902;52.920;6.536;2023-06-10T15:19:00;32.50;35.40
61016;DHT22;46902;52.920;6.536;2023-06-10T15:21:25;32.50;35.40
61016;DHT22;46902;52.920;6.536;2023-06-10T15:23:51;32.50;34.80
61016;DHT22;46902;52.920;6.536;2023-06-10T15:26:17;32.40;33.50
61016;DHT22;46902;52.920;6.536;2023-06-10T15:28:42;32.30;32.10
61016;DHT22;46902;52.920;6.536;2023-06-10T15:31:08;32.30;32.20
61016;DHT22;46902;52.920;6.536;2023-06-10T15:33:33;32.30;31.60
61016;DHT22;46902;52.920;6.536;2023-06-10T15:35:59;32.40;31.40
61016;DHT22;46902;52.920;6.536;2023-06-10T15:38:25;32.30;30.90
61016;DHT22;46902;52.920;6.536;2023-06-10T15:40:50;32.40;31.10
61016;DHT22;46902;52.920;6.536;2023-06-10T15:43:16;32.40;31.00
61016;DHT22;46902;52.920;6.536;2023-06-10T15:45:41;32.40;31.00
61016;DHT22;46902;52.920;6.536;2023-06-10T15:48:07;32.30;30.50